createdAt,value
2018-05-24T00:16:42.281Z,15.90
2018-05-24T00:17:13.941Z,16.10
2018-05-24T00:17:45.629Z,16.00
2018-05-24T00:18:17.245Z,16.00
2018-05-24T00:18:48.851Z,16.00
2018-05-24T00:19:20.483Z,16.00
2018-05-24T00:19:52.143Z,15.90
2018-05-24T00:20:25.193Z,16.00
2018-05-24T00:20:56.839Z,15.90
2018-05-24T00:21:28.491Z,16.00
2018-05-24T00:22:00.119Z,15.90
2018-05-24T00:22:31.765Z,16.00
2018-05-24T00:23:03.397Z,16.00
2018-05-24T00:23:35.045Z,16.00
2018-05-24T00:24:06.655Z,16.00
2018-05-24T00:24:38.287Z,16.00
2018-05-24T00:25:09.923Z,16.00
2018-05-24T00:25:41.573Z,16.00
2018-05-24T00:26:13.231Z,16.00
2018-05-24T00:26:44.863Z,16.00
2018-05-24T00:27:16.483Z,16.00
2018-05-24T00:27:48.127Z,16.00
2018-05-24T00:28:19.778Z,16.00
2018-05-24T00:28:51.415Z,16.00
2018-05-24T00:29:23.031Z,16.00
2018-05-24T00:29:54.651Z,16.10
2018-05-24T00:30:26.302Z,16.00
2018-05-24T00:30:57.916Z,16.00
2018-05-24T00:31:29.571Z,16.00
2018-05-24T00:32:01.231Z,15.90
2018-05-24T00:32:32.864Z,16.00
2018-05-24T00:33:04.491Z,16.00
2018-05-24T00:33:36.116Z,16.10
2018-05-24T00:34:07.739Z,16.10
2018-05-24T00:34:39.372Z,16.00
2018-05-24T00:35:11.021Z,16.10
2018-05-24T00:35:42.650Z,16.10
2018-05-24T00:36:14.288Z,16.10
2018-05-24T00:36:45.928Z,16.10
2018-05-24T00:37:17.576Z,16.10
2018-05-24T00:37:49.215Z,16.00
2018-05-24T00:38:20.832Z,16.10
2018-05-24T00:38:52.472Z,16.10
2018-05-24T00:39:24.114Z,16.00
2018-05-24T00:39:55.750Z,16.00
2018-05-24T00:40:27.390Z,16.00
2018-05-24T00:40:59.046Z,16.10
2018-05-24T00:41:30.696Z,16.10
2018-05-24T00:42:02.340Z,16.00
2018-05-24T00:42:33.979Z,16.00
2018-05-24T00:43:05.615Z,16.00
2018-05-24T00:43:37.284Z,16.00
2018-05-24T00:44:08.922Z,16.10
2018-05-24T00:44:40.554Z,16.10
2018-05-24T00:45:12.196Z,16.00
2018-05-24T00:45:43.826Z,16.10
2018-05-24T00:46:15.464Z,16.00
2018-05-24T00:46:47.105Z,16.10
2018-05-24T00:47:18.733Z,16.00
2018-05-24T00:47:50.363Z,16.00
2018-05-24T00:48:22.029Z,16.00
2018-05-24T00:48:53.706Z,16.00
2018-05-24T00:49:25.367Z,16.00
2018-05-24T00:49:57.004Z,16.00
2018-05-24T00:50:28.620Z,16.10
2018-05-24T00:51:00.266Z,16.00
2018-05-24T00:51:31.880Z,16.00
2018-05-24T00:52:03.544Z,16.10
2018-05-24T00:52:35.212Z,16.10
2018-05-24T00:53:06.877Z,16.00
2018-05-24T00:53:38.516Z,16.00
2018-05-24T00:54:10.140Z,16.00
2018-05-24T00:54:41.836Z,16.10
2018-05-24T00:55:31.952Z,16.00
2018-05-24T00:56:03.538Z,16.00
2018-05-24T00:56:35.164Z,16.00
2018-05-24T00:57:06.811Z,16.10
2018-05-24T00:57:38.458Z,16.00
2018-05-24T00:58:10.095Z,16.10
2018-05-24T00:58:41.738Z,16.00
2018-05-24T00:59:13.368Z,16.10
2018-05-24T00:59:45.013Z,16.00
2018-05-24T01:00:16.632Z,16.00
2018-05-24T01:00:48.293Z,16.00
2018-05-24T01:01:19.931Z,16.00
2018-05-24T01:01:51.560Z,16.00
2018-05-24T01:02:23.220Z,16.00
2018-05-24T01:02:54.852Z,16.00
2018-05-24T01:03:26.472Z,16.00
2018-05-24T01:03:58.100Z,16.10
2018-05-24T01:04:29.740Z,16.00
2018-05-24T01:05:01.370Z,16.00
2018-05-24T01:05:33.024Z,16.00
2018-05-24T01:06:04.677Z,16.00
2018-05-24T01:06:36.344Z,16.00
2018-05-24T01:07:07.980Z,16.00
2018-05-24T01:07:39.619Z,16.00
2018-05-24T01:08:11.242Z,16.00
2018-05-24T01:08:42.866Z,16.00
2018-05-24T01:09:14.484Z,16.00
2018-05-24T01:09:46.134Z,16.00
2018-05-24T01:10:17.800Z,16.00
2018-05-24T01:10:49.450Z,16.00
2018-05-24T01:11:21.102Z,15.90
2018-05-24T01:11:54.857Z,16.00
2018-05-24T01:12:26.504Z,15.90
2018-05-24T01:12:58.140Z,16.00
2018-05-24T01:13:29.764Z,16.00
2018-05-24T01:14:01.424Z,15.90
2018-05-24T01:14:33.089Z,16.00
2018-05-24T01:15:04.742Z,15.90
2018-05-24T01:15:36.370Z,15.90
2018-05-24T01:16:08.010Z,15.90
2018-05-24T01:16:39.648Z,15.90
2018-05-24T01:17:11.286Z,15.90
2018-05-24T01:17:42.924Z,15.80
2018-05-24T01:18:14.566Z,16.00
2018-05-24T01:18:46.206Z,16.00
2018-05-24T01:19:17.834Z,15.90
2018-05-24T01:19:49.468Z,15.90
2018-05-24T01:20:21.150Z,16.00
2018-05-24T01:20:52.773Z,15.90
2018-05-24T01:21:24.428Z,15.90
2018-05-24T01:21:56.078Z,15.90
2018-05-24T01:22:27.698Z,15.80
2018-05-24T01:22:59.321Z,15.80
2018-05-24T01:23:30.952Z,15.90
2018-05-24T01:24:02.629Z,15.80
2018-05-24T01:24:34.267Z,15.90
2018-05-24T01:25:05.878Z,15.80
2018-05-24T01:25:37.530Z,16.00
2018-05-24T01:26:09.165Z,15.90
2018-05-24T01:26:40.802Z,15.90
2018-05-24T01:27:12.425Z,16.00
2018-05-24T01:27:44.096Z,15.90
2018-05-24T01:28:15.775Z,16.00
2018-05-24T01:28:47.388Z,16.00
2018-05-24T01:29:19.013Z,15.90
2018-05-24T01:29:50.646Z,16.00
2018-05-24T01:30:22.314Z,15.90
2018-05-24T01:30:53.952Z,16.00
2018-05-24T01:31:25.596Z,15.90
2018-05-24T01:31:57.236Z,15.80
2018-05-24T01:32:28.863Z,15.90
2018-05-24T01:33:00.513Z,15.80
2018-05-24T01:33:32.145Z,15.90
2018-05-24T01:34:03.789Z,15.90
2018-05-24T01:34:35.416Z,15.90
2018-05-24T01:35:07.058Z,15.90
2018-05-24T01:35:38.687Z,15.90
2018-05-24T01:36:10.305Z,15.90
2018-05-24T01:37:13.209Z,15.90
2018-05-24T01:38:29.659Z,15.90
2018-05-24T01:39:01.288Z,15.80
2018-05-24T01:39:32.906Z,15.80
2018-05-24T01:40:04.559Z,15.90
2018-05-24T01:40:36.194Z,15.90
2018-05-24T01:41:07.819Z,15.90
2018-05-24T01:41:39.449Z,15.80
2018-05-24T01:42:11.072Z,15.80
2018-05-24T01:42:42.710Z,15.90
2018-05-24T01:43:14.326Z,15.80
2018-05-24T01:43:45.955Z,15.80
2018-05-24T01:44:17.580Z,15.80
2018-05-24T01:44:49.240Z,15.80
2018-05-24T01:45:20.863Z,15.80
2018-05-24T01:45:52.503Z,15.80
2018-05-24T01:46:24.143Z,15.80
2018-05-24T01:46:55.759Z,15.80
2018-05-24T01:47:27.361Z,15.90
2018-05-24T01:47:58.989Z,15.80
2018-05-24T01:48:30.612Z,15.80
2018-05-24T01:49:02.221Z,15.80
2018-05-24T01:49:33.834Z,15.80
2018-05-24T01:50:05.499Z,15.80
2018-05-24T01:50:37.146Z,15.70
2018-05-24T01:51:08.773Z,15.70
2018-05-24T01:51:40.421Z,15.80
2018-05-24T01:52:12.064Z,15.70
2018-05-24T01:52:43.709Z,15.80
2018-05-24T01:53:15.325Z,15.80
2018-05-24T01:53:46.953Z,15.80
2018-05-24T01:54:18.567Z,15.80
2018-05-24T01:54:50.228Z,15.80
2018-05-24T01:55:21.872Z,15.80
2018-05-24T01:55:53.508Z,15.80
2018-05-24T01:56:25.139Z,15.70
2018-05-24T01:56:56.774Z,15.80
2018-05-24T01:57:28.395Z,15.80
2018-05-24T01:58:00.051Z,15.80
2018-05-24T01:58:31.667Z,15.70
2018-05-24T01:59:03.295Z,15.80
2018-05-24T01:59:34.945Z,15.80
2018-05-24T02:00:06.603Z,15.80
2018-05-24T02:00:38.228Z,15.80
2018-05-24T02:01:09.873Z,15.80
2018-05-24T02:01:41.489Z,15.80
2018-05-24T02:02:13.108Z,15.90
2018-05-24T02:02:44.727Z,15.90
2018-05-24T02:03:16.440Z,15.80
2018-05-24T02:03:48.067Z,15.70
2018-05-24T02:04:19.691Z,15.80
2018-05-24T02:04:51.317Z,15.70
2018-05-24T02:05:22.929Z,15.70
2018-05-24T02:05:54.559Z,15.80
2018-05-24T02:06:26.195Z,15.70
2018-05-24T02:06:57.806Z,15.80
2018-05-24T02:07:29.439Z,15.70
2018-05-24T02:08:01.065Z,15.70
2018-05-24T02:08:32.705Z,15.80
2018-05-24T02:09:04.387Z,15.80
2018-05-24T02:09:36.019Z,15.80
2018-05-24T02:10:07.647Z,15.80
2018-05-24T02:10:39.305Z,15.70
2018-05-24T02:11:10.937Z,15.70
2018-05-24T02:11:42.565Z,15.80
2018-05-24T02:12:14.215Z,15.90
2018-05-24T02:12:45.882Z,15.80
2018-05-24T02:13:17.509Z,15.80
2018-05-24T02:13:49.130Z,15.80
2018-05-24T02:14:20.799Z,15.80
2018-05-24T02:14:52.427Z,15.80
2018-05-24T02:15:24.067Z,15.80
2018-05-24T02:15:55.699Z,15.80
2018-05-24T02:16:27.331Z,15.80
2018-05-24T02:16:58.967Z,15.70
2018-05-24T02:17:30.621Z,15.80
2018-05-24T02:18:02.239Z,15.80
2018-05-24T02:18:33.887Z,15.70
2018-05-24T02:19:05.507Z,15.80
2018-05-24T02:19:37.144Z,15.70
2018-05-24T02:20:08.785Z,15.80
2018-05-24T02:20:40.446Z,15.70
2018-05-24T02:21:12.069Z,15.80
2018-05-24T02:21:43.701Z,15.80
2018-05-24T02:22:15.306Z,15.80
2018-05-24T02:22:46.931Z,15.70
2018-05-24T02:23:18.554Z,15.80
2018-05-24T02:23:50.193Z,15.70
2018-05-24T02:24:21.873Z,15.70
2018-05-24T02:24:53.491Z,15.70
2018-05-24T02:25:25.113Z,15.70
2018-05-24T02:25:56.729Z,15.70
2018-05-24T02:26:28.328Z,15.70
2018-05-24T02:26:59.935Z,15.70
2018-05-24T02:27:31.597Z,15.70
2018-05-24T02:28:03.239Z,15.70
2018-05-24T02:28:34.899Z,15.70
2018-05-24T02:29:06.535Z,15.70
2018-05-24T02:29:38.162Z,15.70
2018-05-24T02:30:09.803Z,15.70
2018-05-24T02:30:41.455Z,15.70
2018-05-24T02:31:13.103Z,15.70
2018-05-24T02:31:44.737Z,15.70
2018-05-24T02:32:16.375Z,15.60
2018-05-24T02:32:48.001Z,15.60
2018-05-24T02:33:19.622Z,15.60
2018-05-24T02:33:51.275Z,15.60
2018-05-24T02:34:22.875Z,15.70
2018-05-24T02:34:54.535Z,15.70
2018-05-24T02:35:26.229Z,15.60
2018-05-24T02:35:57.987Z,15.70
2018-05-24T02:36:29.503Z,15.60
2018-05-24T02:37:01.134Z,15.60
2018-05-24T02:37:32.795Z,15.70
2018-05-24T02:38:05.337Z,15.60
2018-05-24T02:38:36.971Z,15.60
2018-05-24T02:39:08.599Z,15.60
2018-05-24T02:39:40.225Z,15.60
2018-05-24T02:40:11.852Z,15.60
2018-05-24T02:40:43.509Z,15.60
2018-05-24T02:41:15.155Z,15.60
2018-05-24T02:41:46.785Z,15.60
2018-05-24T02:42:18.410Z,15.60
2018-05-24T02:42:50.051Z,15.50
2018-05-24T02:43:21.669Z,15.60
2018-05-24T02:43:53.291Z,15.50
2018-05-24T02:44:24.996Z,15.60
2018-05-24T02:44:56.593Z,15.50
2018-05-24T02:45:28.203Z,15.60
2018-05-24T02:45:59.825Z,15.50
2018-05-24T02:46:31.476Z,15.50
2018-05-24T02:47:03.155Z,15.50
2018-05-24T02:47:34.800Z,15.50
2018-05-24T02:48:06.449Z,15.50
2018-05-24T02:48:38.073Z,15.50
2018-05-24T02:49:09.701Z,15.50
2018-05-24T02:49:41.328Z,15.40
2018-05-24T02:50:12.979Z,15.50
2018-05-24T02:50:44.616Z,15.40
2018-05-24T02:51:16.248Z,15.50
2018-05-24T02:51:47.877Z,15.50
2018-05-24T02:52:19.499Z,15.40
2018-05-24T02:52:51.119Z,15.40
2018-05-24T02:53:22.757Z,15.40
2018-05-24T02:53:54.392Z,15.50
2018-05-24T02:54:26.047Z,15.40
2018-05-24T02:54:57.665Z,15.40
2018-05-24T02:55:29.299Z,15.40
2018-05-24T02:56:00.935Z,15.40
2018-05-24T02:56:32.605Z,15.30
2018-05-24T02:57:04.237Z,15.40
2018-05-24T02:57:35.873Z,15.40
2018-05-24T02:58:07.488Z,15.30
2018-05-24T02:58:39.101Z,15.30
2018-05-24T02:59:10.728Z,15.40
2018-05-24T02:59:42.337Z,15.30
2018-05-24T03:00:13.968Z,15.30
2018-05-24T03:00:45.611Z,15.30
2018-05-24T03:01:17.241Z,15.40
2018-05-24T03:01:48.909Z,15.40
2018-05-24T03:02:20.491Z,15.30
2018-05-24T03:02:52.126Z,15.40
2018-05-24T03:03:23.769Z,15.20
2018-05-24T03:03:55.387Z,15.30
2018-05-24T03:04:27.019Z,15.30
2018-05-24T03:04:58.647Z,15.30
2018-05-24T03:05:30.263Z,15.30
2018-05-24T03:06:01.954Z,15.30
2018-05-24T03:06:33.567Z,15.30
2018-05-24T03:07:05.203Z,15.20
2018-05-24T03:07:36.830Z,15.20
2018-05-24T03:08:08.449Z,15.20
2018-05-24T03:08:40.101Z,15.30
2018-05-24T03:09:11.813Z,15.30
2018-05-24T03:09:43.456Z,15.30
2018-05-24T03:10:15.053Z,15.30
2018-05-24T03:10:46.696Z,15.20
2018-05-24T03:11:18.323Z,15.30
2018-05-24T03:11:49.973Z,15.30
2018-05-24T03:12:21.603Z,15.30
2018-05-24T03:12:53.235Z,15.20
2018-05-24T03:13:24.880Z,15.20
2018-05-24T03:13:56.498Z,15.20
2018-05-24T03:14:28.227Z,15.20
2018-05-24T03:14:59.791Z,15.20
2018-05-24T03:15:31.432Z,15.20
2018-05-24T03:16:03.079Z,15.20
2018-05-24T03:16:34.716Z,15.30
2018-05-24T03:17:06.366Z,15.40
2018-05-24T03:17:37.989Z,15.20
2018-05-24T03:18:09.643Z,15.30
2018-05-24T03:18:41.289Z,15.30
2018-05-24T03:19:12.928Z,15.20
2018-05-24T03:19:44.563Z,15.30
2018-05-24T03:20:16.197Z,15.20
2018-05-24T03:20:47.873Z,15.20
2018-05-24T03:21:19.504Z,15.20
2018-05-24T03:21:51.138Z,15.10
2018-05-24T03:22:22.770Z,15.20
2018-05-24T03:22:54.389Z,15.20
2018-05-24T03:23:26.007Z,15.20
2018-05-24T03:23:57.623Z,15.10
2018-05-24T03:24:29.258Z,15.20
2018-05-24T03:25:00.879Z,15.20
2018-05-24T03:25:32.531Z,15.10
2018-05-24T03:26:04.187Z,15.10
2018-05-24T03:26:35.815Z,15.20
2018-05-24T03:27:07.469Z,15.10
2018-05-24T03:27:39.105Z,15.20
2018-05-24T03:28:10.741Z,15.10
2018-05-24T03:28:42.361Z,15.10
2018-05-24T03:29:13.998Z,15.10
2018-05-24T03:29:45.629Z,15.10
2018-05-24T03:30:17.251Z,15.10
2018-05-24T03:30:48.893Z,15.10
2018-05-24T03:31:20.532Z,15.10
2018-05-24T03:31:52.169Z,15.00
2018-05-24T03:32:23.786Z,15.10
2018-05-24T03:32:55.415Z,15.10
2018-05-24T03:33:27.043Z,15.20
2018-05-24T03:33:58.653Z,15.00
2018-05-24T03:34:30.277Z,15.10
2018-05-24T03:35:01.939Z,15.10
2018-05-24T03:35:33.573Z,15.00
2018-05-24T03:36:05.209Z,15.00
2018-05-24T03:36:36.841Z,15.10
2018-05-24T03:37:08.462Z,15.00
2018-05-24T03:37:40.093Z,15.10
2018-05-24T03:38:11.695Z,15.00
2018-05-24T03:38:43.329Z,15.10
2018-05-24T03:39:14.959Z,15.10
2018-05-24T03:39:46.591Z,15.00
2018-05-24T03:40:18.223Z,15.00
2018-05-24T03:40:49.844Z,15.00
2018-05-24T03:41:21.463Z,15.00
2018-05-24T03:41:53.145Z,15.00
2018-05-24T03:42:24.799Z,15.10
2018-05-24T03:42:56.411Z,15.00
2018-05-24T03:43:28.034Z,15.00
2018-05-24T03:43:59.675Z,15.00
2018-05-24T03:44:31.309Z,15.00
2018-05-24T03:45:02.967Z,14.90
2018-05-24T03:45:34.585Z,15.00
2018-05-24T03:46:06.195Z,15.00
2018-05-24T03:46:37.825Z,15.00
2018-05-24T03:47:09.439Z,15.10
2018-05-24T03:47:41.081Z,15.00
2018-05-24T03:48:12.720Z,15.00
2018-05-24T03:48:44.331Z,15.00
2018-05-24T03:49:15.971Z,15.00
2018-05-24T03:49:47.611Z,15.10
2018-05-24T03:50:19.249Z,15.00
2018-05-24T03:50:50.893Z,15.00
2018-05-24T03:51:22.502Z,15.10
2018-05-24T03:51:54.147Z,14.90
2018-05-24T03:52:25.772Z,14.90
2018-05-24T03:52:57.397Z,15.00
2018-05-24T03:53:29.017Z,15.00
2018-05-24T03:54:00.621Z,15.10
2018-05-24T03:54:32.245Z,15.00
2018-05-24T03:55:03.891Z,15.00
2018-05-24T03:55:35.507Z,15.00
2018-05-24T03:56:07.135Z,15.00
2018-05-24T03:56:38.758Z,15.00
2018-05-24T03:57:10.389Z,15.00
2018-05-24T03:57:42.046Z,15.00
2018-05-24T03:58:13.672Z,15.00
2018-05-24T03:58:45.351Z,15.00
2018-05-24T04:01:03.983Z,15.00
2018-05-24T04:01:54.219Z,15.00
2018-05-24T04:02:44.473Z,15.10
2018-05-24T04:03:34.684Z,15.10
2018-05-24T04:04:25.017Z,15.10
2018-05-24T04:04:57.579Z,15.10
2018-05-24T04:05:29.221Z,15.20
2018-05-24T04:06:00.863Z,15.10
2018-05-24T04:16:22.541Z,15.10
2018-05-24T04:16:54.141Z,15.20
2018-05-24T04:17:25.743Z,15.20
2018-05-24T04:17:57.387Z,15.30
2018-05-24T04:18:28.994Z,15.20
2018-05-24T04:19:00.609Z,15.20
2018-05-24T04:19:32.229Z,15.20
2018-05-24T04:20:03.862Z,15.20
2018-05-24T04:20:35.475Z,15.20
2018-05-24T04:21:07.115Z,15.20
2018-05-24T04:21:38.749Z,15.30
2018-05-24T04:22:10.362Z,15.20
2018-05-24T04:22:41.990Z,15.30
2018-05-24T04:23:14.469Z,15.30
2018-05-24T04:23:46.106Z,15.20
2018-05-24T04:24:17.718Z,15.30
2018-05-24T04:24:49.412Z,15.30
2018-05-24T04:25:21.031Z,15.30
2018-05-24T04:25:52.658Z,15.30
2018-05-24T04:26:24.309Z,15.30
2018-05-24T04:26:55.952Z,15.30
2018-05-24T04:27:27.607Z,15.30
2018-05-24T04:27:59.242Z,15.30
2018-05-24T04:28:30.859Z,15.40
2018-05-24T04:29:02.491Z,15.40
2018-05-24T04:29:34.114Z,15.40
2018-05-24T04:30:05.752Z,15.40
2018-05-24T04:30:37.391Z,15.50
2018-05-24T04:31:09.041Z,15.50
2018-05-24T04:31:40.672Z,15.50
2018-05-24T04:32:12.356Z,15.50
2018-05-24T04:32:43.989Z,15.60
2018-05-24T04:33:15.634Z,15.50
2018-05-24T04:33:47.288Z,15.60
2018-05-24T04:34:18.928Z,15.60
2018-05-24T04:34:50.545Z,15.60
2018-05-24T04:35:22.180Z,15.60
2018-05-24T04:35:53.840Z,15.70
2018-05-24T04:36:25.447Z,15.70
2018-05-24T04:36:57.087Z,15.70
2018-05-24T04:37:28.718Z,15.70
2018-05-24T04:38:00.350Z,15.70
2018-05-24T04:38:31.984Z,15.70
2018-05-24T04:39:03.665Z,15.80
2018-05-24T04:39:35.321Z,15.80
2018-05-24T04:40:06.948Z,15.80
2018-05-24T04:40:38.582Z,15.80
2018-05-24T04:41:10.231Z,15.90
2018-05-24T04:41:41.846Z,15.90
2018-05-24T04:42:13.480Z,16.00
2018-05-24T04:42:45.136Z,15.90
2018-05-24T04:43:16.754Z,16.00
2018-05-24T04:43:48.397Z,16.00
2018-05-24T04:44:20.035Z,16.00
2018-05-24T04:44:51.674Z,16.00
2018-05-24T04:45:23.598Z,16.00
2018-05-24T04:45:55.206Z,16.10
2018-05-24T04:46:26.841Z,16.10
2018-05-24T04:46:58.488Z,16.10
2018-05-24T04:47:30.100Z,16.10
2018-05-24T04:48:01.738Z,16.20
2018-05-24T04:48:33.352Z,16.30
2018-05-24T04:49:04.994Z,16.30
2018-05-24T04:49:36.634Z,16.20
2018-05-24T04:50:08.254Z,16.20
2018-05-24T04:50:39.844Z,16.30
2018-05-24T04:51:11.467Z,16.30
2018-05-24T04:51:43.096Z,16.30
2018-05-24T04:52:14.740Z,16.40
2018-05-24T04:52:46.347Z,16.40
2018-05-24T04:53:17.992Z,16.40
2018-05-24T04:53:49.610Z,16.40
2018-05-24T04:54:21.222Z,16.40
2018-05-24T04:54:52.834Z,16.50
2018-05-24T04:55:24.459Z,16.50
2018-05-24T04:55:56.083Z,16.60
2018-05-24T04:56:27.704Z,16.70
2018-05-24T04:56:59.324Z,16.60
2018-05-24T04:57:30.971Z,16.60
2018-05-24T04:58:02.599Z,16.70
2018-05-24T04:58:34.218Z,16.70
2018-05-24T04:59:05.835Z,16.80
2018-05-24T04:59:37.474Z,16.70
2018-05-24T05:00:09.099Z,16.80
2018-05-24T05:00:40.742Z,16.80
2018-05-24T05:01:12.370Z,16.80
2018-05-24T05:01:44.052Z,16.80
2018-05-24T05:02:15.656Z,16.80
2018-05-24T05:02:47.273Z,16.80
2018-05-24T05:03:18.903Z,16.90
2018-05-24T05:03:50.580Z,16.90
2018-05-24T05:04:22.202Z,17.00
2018-05-24T05:04:53.834Z,16.90
2018-05-24T05:05:25.436Z,17.00
2018-05-24T05:05:57.199Z,16.90
2018-05-24T05:06:28.847Z,17.00
2018-05-24T05:07:00.473Z,17.10
2018-05-24T05:07:32.119Z,17.10
2018-05-24T05:08:03.738Z,17.10
2018-05-24T05:08:35.388Z,17.20
2018-05-24T05:09:07.038Z,17.30
2018-05-24T05:09:38.661Z,17.30
2018-05-24T05:10:10.301Z,17.30
2018-05-24T05:10:41.937Z,17.30
2018-05-24T05:11:13.565Z,17.30
2018-05-24T05:11:45.190Z,17.30
2018-05-24T05:12:16.848Z,17.40
2018-05-24T05:12:48.488Z,17.40
2018-05-24T05:13:20.170Z,17.40
2018-05-24T05:13:51.725Z,17.50
2018-05-24T05:14:23.420Z,17.50
2018-05-24T05:14:55.060Z,17.50
2018-05-24T05:15:26.692Z,17.60
2018-05-24T05:15:58.318Z,17.60
2018-05-24T05:16:29.943Z,17.60
2018-05-24T05:17:01.567Z,17.70
2018-05-24T05:17:33.200Z,17.70
2018-05-24T05:18:04.819Z,17.70
2018-05-24T05:18:36.459Z,17.80
2018-05-24T05:19:08.089Z,17.90
2018-05-24T05:19:39.740Z,17.80
2018-05-24T05:20:11.359Z,17.80
2018-05-24T05:20:42.979Z,17.90
2018-05-24T05:21:14.642Z,17.80
2018-05-24T05:21:46.261Z,17.90
2018-05-24T05:22:17.892Z,18.00
2018-05-24T05:22:49.524Z,18.00
2018-05-24T05:23:21.961Z,18.10
2018-05-24T05:23:53.584Z,18.10
2018-05-24T05:24:25.200Z,18.20
2018-05-24T05:24:56.833Z,18.20
2018-05-24T05:25:43.378Z,18.20
2018-05-24T05:26:15.029Z,18.30
2018-05-24T05:26:46.718Z,18.30
2018-05-24T05:27:18.363Z,18.40
2018-05-24T05:27:50.003Z,18.40
2018-05-24T05:28:21.631Z,18.40
2018-05-24T05:28:53.248Z,18.50
2018-05-24T05:29:24.864Z,18.50
2018-05-24T05:29:56.480Z,18.60
2018-05-24T05:30:28.092Z,18.70
2018-05-24T05:30:59.706Z,18.60
2018-05-24T05:31:31.341Z,18.60
2018-05-24T05:32:02.981Z,18.60
2018-05-24T05:32:34.632Z,18.60
2018-05-24T05:33:06.242Z,18.70
2018-05-24T05:33:37.855Z,18.80
2018-05-24T05:34:09.483Z,18.70
2018-05-24T05:34:41.150Z,18.80
2018-05-24T05:35:12.777Z,18.90
2018-05-24T05:35:44.388Z,19.00
2018-05-24T05:36:15.998Z,19.00
2018-05-24T05:36:47.635Z,19.00
2018-05-24T05:37:19.296Z,19.10
2018-05-24T05:37:50.918Z,18.90
2018-05-24T05:38:22.549Z,18.90
2018-05-24T05:38:54.167Z,18.90
2018-05-24T05:39:25.799Z,19.00
2018-05-24T05:39:57.416Z,19.00
2018-05-24T05:40:29.045Z,18.90
2018-05-24T05:41:00.693Z,19.00
2018-05-24T05:41:47.262Z,19.10
2018-05-24T05:42:18.887Z,19.00
2018-05-24T05:42:50.521Z,19.10
2018-05-24T05:43:22.159Z,19.10
2018-05-24T05:43:53.812Z,19.10
2018-05-24T05:44:25.447Z,19.20
2018-05-24T05:44:57.146Z,19.10
2018-05-24T05:45:28.715Z,19.20
2018-05-24T05:46:00.331Z,19.10
2018-05-24T05:46:31.949Z,19.20
2018-05-24T05:47:03.563Z,19.10
2018-05-24T05:47:35.233Z,19.10
2018-05-24T05:48:06.857Z,19.10
2018-05-24T05:48:38.443Z,19.20
2018-05-24T05:49:10.083Z,19.20
2018-05-24T05:49:41.703Z,19.30
2018-05-24T05:50:13.347Z,19.30
2018-05-24T05:50:44.979Z,19.30
2018-05-24T05:51:16.623Z,19.30
2018-05-24T05:51:48.231Z,19.40
2018-05-24T05:52:19.834Z,19.50
2018-05-24T05:52:51.469Z,19.30
2018-05-24T05:53:23.121Z,19.30
2018-05-24T05:53:54.743Z,19.30
2018-05-24T05:54:26.370Z,19.30
2018-05-24T05:54:57.987Z,19.20
2018-05-24T05:55:29.610Z,19.30
2018-05-24T05:56:01.265Z,19.30
2018-05-24T05:56:32.902Z,19.40
2018-05-24T05:57:04.553Z,19.30
2018-05-24T05:57:36.185Z,19.30
2018-05-24T05:58:07.802Z,19.50
2018-05-24T05:58:39.448Z,19.40
2018-05-24T05:59:11.092Z,19.40
2018-05-24T05:59:42.705Z,19.50
2018-05-24T06:00:14.309Z,19.60
2018-05-24T06:00:45.931Z,19.80
2018-05-24T06:01:17.555Z,19.80
2018-05-24T06:01:49.246Z,19.90
2018-05-24T06:02:20.833Z,20.00
2018-05-24T06:02:52.453Z,20.10
2018-05-24T06:03:24.080Z,20.20
2018-05-24T06:03:55.706Z,20.40
2018-05-24T06:04:27.377Z,20.50
2018-05-24T06:04:59.015Z,20.40
2018-05-24T06:05:30.655Z,20.50
2018-05-24T06:06:02.302Z,20.50
2018-05-24T06:06:33.917Z,20.60
2018-05-24T06:07:05.571Z,20.60
2018-05-24T06:07:37.205Z,20.80
2018-05-24T06:08:08.805Z,20.70
2018-05-24T06:08:40.468Z,20.80
2018-05-24T06:09:12.111Z,21.00
2018-05-24T06:09:43.748Z,20.90
2018-05-24T06:10:15.349Z,21.10
2018-05-24T06:10:46.966Z,20.90
2018-05-24T06:11:18.601Z,21.00
2018-05-24T06:11:50.247Z,21.10
2018-05-24T06:12:21.875Z,21.10
2018-05-24T06:12:53.495Z,21.20
2018-05-24T06:13:25.127Z,21.10
2018-05-24T06:13:56.770Z,21.20
2018-05-24T06:14:28.359Z,21.30
2018-05-24T06:15:00.025Z,21.40
2018-05-24T06:15:31.717Z,21.50
2018-05-24T06:16:03.311Z,21.50
2018-05-24T06:16:34.923Z,21.70
2018-05-24T06:17:06.571Z,21.60
2018-05-24T06:17:38.235Z,21.70
2018-05-24T06:18:09.855Z,21.70
2018-05-24T06:18:41.491Z,21.60
2018-05-24T06:19:13.113Z,21.60
2018-05-24T06:19:44.749Z,21.60
2018-05-24T06:20:16.371Z,21.60
2018-05-24T06:20:48.050Z,21.60
2018-05-24T06:21:19.725Z,21.80
2018-05-24T06:21:51.377Z,21.60
2018-05-24T06:22:23.005Z,21.70
2018-05-24T06:22:54.615Z,21.80
2018-05-24T06:23:26.273Z,21.80
2018-05-24T06:23:57.885Z,21.70
2018-05-24T06:24:29.513Z,21.60
2018-05-24T06:25:01.130Z,21.60
2018-05-24T06:25:32.764Z,21.70
2018-05-24T06:26:04.367Z,21.80
2018-05-24T06:26:36.022Z,21.90
2018-05-24T06:27:07.665Z,22.00
2018-05-24T06:27:39.309Z,22.00
2018-05-24T06:28:10.904Z,21.70
2018-05-24T06:28:42.555Z,21.80
2018-05-24T06:29:14.169Z,22.00
2018-05-24T06:29:45.793Z,22.30
2018-05-24T06:30:17.391Z,22.60
2018-05-24T06:30:48.996Z,23.10
2018-05-24T06:31:20.625Z,23.30
2018-05-24T06:31:52.247Z,23.30
2018-05-24T06:32:23.887Z,22.90
2018-05-24T06:32:55.521Z,22.50
2018-05-24T06:33:42.075Z,22.00
2018-05-24T06:34:13.712Z,22.10
2018-05-24T06:34:45.337Z,22.00
2018-05-24T06:35:17.026Z,22.30
2018-05-24T06:35:48.607Z,22.60
2018-05-24T06:36:20.235Z,23.40
2018-05-24T06:36:51.845Z,24.50
2018-05-24T06:37:23.468Z,25.40
2018-05-24T06:37:55.073Z,26.10
2018-05-24T06:38:26.677Z,26.50
2018-05-24T06:38:58.296Z,26.80
2018-05-24T06:39:29.911Z,26.80
2018-05-24T06:40:01.604Z,26.90
2018-05-24T06:40:33.196Z,26.80
2018-05-24T06:41:04.830Z,27.00
2018-05-24T06:41:36.489Z,26.90
2018-05-24T06:42:08.141Z,27.40
2018-05-24T06:42:39.761Z,26.90
2018-05-24T06:43:11.387Z,26.20
2018-05-24T06:43:43.014Z,26.30
2018-05-24T06:44:14.634Z,26.70
2018-05-24T06:44:46.259Z,26.60
2018-05-24T06:45:17.874Z,26.90
2018-05-24T06:45:49.524Z,27.80
2018-05-24T06:46:21.159Z,28.40
2018-05-24T06:46:52.813Z,29.20
2018-05-24T06:47:24.467Z,29.70
2018-05-24T06:47:56.087Z,29.30
2018-05-24T06:48:27.700Z,29.10
2018-05-24T06:48:59.975Z,29.40
2018-05-24T06:49:31.596Z,29.10
2018-05-24T06:50:03.289Z,29.60
2018-05-24T06:50:34.934Z,29.10
2018-05-24T06:51:06.579Z,29.20
2018-05-24T06:51:38.275Z,29.60
2018-05-24T06:52:09.924Z,29.60
2018-05-24T06:52:41.538Z,29.40
2018-05-24T06:53:13.176Z,29.30
2018-05-24T06:53:44.827Z,29.90
2018-05-24T06:54:16.445Z,30.40
2018-05-24T06:54:48.091Z,30.00
2018-05-24T06:55:19.729Z,29.70
2018-05-24T06:55:51.386Z,30.10
2018-05-24T06:56:23.020Z,30.30
2018-05-24T06:56:54.632Z,30.40
2018-05-24T06:57:26.287Z,30.20
2018-05-24T06:57:57.912Z,29.90
2018-05-24T06:58:29.604Z,30.30
2018-05-24T06:59:01.165Z,30.50
2018-05-24T06:59:32.806Z,31.10
2018-05-24T07:00:04.433Z,31.50
2018-05-24T07:00:36.102Z,31.70
2018-05-24T07:01:07.735Z,31.80
2018-05-24T07:01:39.368Z,31.10
2018-05-24T07:02:10.975Z,31.30
2018-05-24T07:02:42.586Z,31.00
2018-05-24T07:03:14.420Z,31.10
2018-05-24T07:03:46.074Z,31.30
2018-05-24T07:04:17.721Z,31.30
2018-05-24T07:04:49.370Z,31.80
2018-05-24T07:05:21.056Z,31.80
2018-05-24T07:05:52.748Z,32.20
2018-05-24T07:06:24.331Z,32.00
2018-05-24T07:06:55.955Z,32.40
2018-05-24T07:07:27.676Z,32.60
2018-05-24T07:07:59.235Z,31.00
2018-05-24T07:08:30.878Z,31.50
2018-05-24T07:09:02.579Z,31.50
2018-05-24T07:09:34.232Z,31.70
2018-05-24T07:10:05.878Z,31.30
2018-05-24T07:10:37.494Z,31.20
2018-05-24T07:11:09.171Z,30.00
2018-05-24T07:11:40.738Z,29.90
2018-05-24T07:12:13.518Z,29.30
2018-05-24T07:12:45.221Z,30.10
2018-05-24T07:13:16.918Z,30.50
2018-05-24T07:13:48.565Z,30.80
2018-05-24T07:14:20.173Z,30.70
2018-05-24T07:14:51.783Z,30.60
2018-05-24T07:15:23.415Z,31.00
2018-05-24T07:15:55.032Z,31.20
2018-05-24T07:16:26.649Z,31.40
2018-05-24T07:16:58.259Z,31.10
2018-05-24T07:17:29.863Z,31.70
2018-05-24T07:18:01.528Z,31.80
2018-05-24T07:18:33.171Z,31.00
2018-05-24T07:19:04.809Z,31.00